Time;durP1;ratioP1;P1;durP2;ratioP2;P2;SDS_P1;SDS_P2;PMS_P1;PMS_P2;Temp;Humidity;BMP_temperature;BMP_pressure;BME280_temperature;BME280_humidity;BME280_pressure;Samples;Min_cycle;Max_cycle;Signal;HPM_P1;HPM_P2
2021/08/04 00:00:10;;;;;;;;;3.75;3.75;;;;;16.71;66.03;100203.13;4996811;28;45134;-86
2021/08/04 00:02:35;;;;;;;;;5.75;5.50;;;;;16.72;66.13;100203.00;4980215;28;45242;-87
2021/08/04 00:05:01;;;;;;;;;5.50;5.25;;;;;16.71;66.44;100198.59;4996384;28;47360;-86
2021/08/04 00:07:26;;;;;;;;;4.75;4.50;;;;;16.53;66.54;100181.41;4997859;28;45152;-86
2021/08/04 00:09:52;;;;;;;;;4.00;4.00;;;;;16.49;66.90;100178.16;4998298;28;45568;-88
2021/08/04 00:12:17;;;;;;;;;6.00;4.25;;;;;16.71;66.76;100216.53;4997921;28;45214;-86
2021/08/04 00:14:43;;;;;;;;;7.00;6.25;;;;;16.49;66.88;100177.28;4996506;28;47267;-87
2021/08/04 00:17:09;;;;;;;;;5.75;5.00;;;;;16.65;66.21;100207.19;4996143;28;45750;-86
2021/08/04 00:19:34;;;;;;;;;5.50;5.50;;;;;16.41;65.68;100172.59;4980284;28;45185;-87
2021/08/04 00:22:00;;;;;;;;;6.50;6.50;;;;;16.60;65.09;100205.88;4997968;28;45322;-88
2021/08/04 00:24:25;;;;;;;;;7.00;6.25;;;;;16.31;64.41;100171.69;4997681;28;46208;-86
2021/08/04 00:26:51;;;;;;;;;8.00;5.50;;;;;16.38;64.14;100189.78;4997484;28;45236;-86
2021/08/04 00:29:16;;;;;;;;;6.75;5.00;;;;;16.43;63.65;100204.66;4997895;28;45267;-86
2021/08/04 00:31:42;;;;;;;;;4.00;4.00;;;;;16.10;63.69;100161.78;4979419;28;45313;-87
2021/08/04 00:34:07;;;;;;;;;5.50;4.75;;;;;16.35;64.27;100213.38;4979712;28;47389;-86
2021/08/04 00:36:32;;;;;;;;;5.75;4.50;;;;;16.25;64.44;100194.53;4997395;28;45265;-87
2021/08/04 00:38:58;;;;;;;;;5.50;5.00;;;;;16.32;64.40;100202.91;4979557;28;45364;-87
2021/08/04 00:41:24;;;;;;;;;9.25;6.50;;;;;16.19;64.14;100187.84;4979690;28;45146;-88
2021/08/04 00:43:49;;;;;;;;;8.75;5.50;;;;;16.25;63.78;100196.31;4979620;28;48101;-86
2021/08/04 00:46:15;;;;;;;;;7.00;6.00;;;;;16.23;64.20;100209.88;4979310;28;45608;-86
2021/08/04 00:48:43;;;;;;;;;7.00;6.50;;;;;16.16;64.13;100197.97;4997422;28;45190;-87
2021/08/04 00:51:08;;;;;;;;;5.75;5.75;;;;;16.09;63.78;100186.06;4979655;28;45186;-86
2021/08/04 00:53:36;;;;;;;;;6.50;6.50;;;;;16.08;64.09;100195.09;4979335;28;46469;-87
2021/08/04 00:56:06;;;;;;;;;6.00;5.75;;;;;15.92;64.25;100168.69;4997129;28;45244;-87
2021/08/04 00:58:34;;;;;;;;;6.25;5.25;;;;;15.96;64.43;100189.78;4997223;28;45323;-86
2021/08/04 01:01:07;;;;;;;;;7.25;6.25;;;;;15.83;64.29;100176.56;4997432;28;45425;-85
2021/08/04 01:03:38;;;;;;;;;7.25;6.75;;;;;15.88;64.19;100184.22;4979444;28;47123;-86
2021/08/04 01:06:06;;;;;;;;;8.75;6.00;;;;;15.79;64.44;100166.19;4995540;28;45554;-87
2021/08/04 01:08:37;;;;;;;;;9.25;5.75;;;;;15.89;65.53;100183.25;4997158;28;45150;-87
2021/08/04 01:11:06;;;;;;;;;7.75;6.00;;;;;15.84;65.73;100186.28;4979313;28;45388;-87
2021/08/04 01:13:47;;;;;;;;;5.25;5.00;;;;;15.81;65.98;100181.19;4995669;28;47389;-87
2021/08/04 01:16:21;;;;;;;;;6.00;5.75;;;;;15.73;65.54;100170.22;4978755;28;45945;-87
2021/08/04 01:18:56;;;;;;;;;4.75;4.75;;;;;15.81;66.19;100191.06;4979154;28;45245;-86
2021/08/04 01:21:48;;;;;;;;;6.75;6.75;;;;;15.75;66.45;100183.47;4996884;28;45258;-87
2021/08/04 01:24:26;;;;;;;;;5.75;5.00;;;;;15.71;66.57;100180.22;4996883;28;46604;-87
2021/08/04 01:26:53;;;;;;;;;5.75;5.00;;;;;15.58;66.50;100168.81;4978369;28;46113;-87
2021/08/04 01:29:23;;;;;;;;;8.50;5.75;;;;;15.61;66.61;100180.13;4996833;28;45178;-87
2021/08/04 01:31:53;;;;;;;;;10.50;7.00;;;;;15.57;66.56;100177.84;4978888;28;45134;-86
2021/08/04 01:34:20;;;;;;;;;5.25;5.25;;;;;15.47;66.49;100164.34;4978758;28;47083;-86
2021/08/04 01:36:47;;;;;;;;;4.75;4.75;;;;;15.36;66.86;100155.38;4996549;28;45513;-86
2021/08/04 01:39:14;;;;;;;;;6.25;6.25;;;;;15.38;67.26;100157.91;4996765;28;45269;-86
2021/08/04 01:41:42;;;;;;;;;4.00;4.00;;;;;15.29;66.74;100153.28;4996914;28;45233;-87
2021/08/04 01:44:08;;;;;;;;;6.75;6.75;;;;;15.29;66.98;100153.28;4978678;28;48118;-87
2021/08/04 01:46:34;;;;;;;;;7.25;4.75;;;;;15.33;66.81;100169.00;4978573;28;45600;-86
2021/08/04 01:49:02;;;;;;;;;8.75;6.00;;;;;15.30;67.18;100171.06;4996656;28;45198;-87
2021/08/04 01:51:28;;;;;;;;;4.50;4.50;;;;;15.24;67.39;100168.91;4996439;28;45155;-86
2021/08/04 01:53:54;;;;;;;;;9.00;8.00;;;;;15.13;67.26;100153.69;4978692;28;47550;-87
2021/08/04 01:56:20;;;;;;;;;6.50;4.75;;;;;15.18;67.47;100160.38;4978453;28;45594;-87
2021/08/04 01:58:45;;;;;;;;;8.25;6.50;;;;;15.00;67.06;100140.44;4994899;28;45236;-86
2021/08/04 02:01:11;;;;;;;;;8.25;5.50;;;;;15.11;67.53;100161.84;4996458;28;45233;-86
2021/08/04 02:03:37;;;;;;;;;6.50;5.50;;;;;14.99;67.37;100147.63;4978449;28;47046;-86
2021/08/04 02:06:09;;;;;;;;;6.00;6.00;;;;;14.95;67.22;100135.47;4978289;28;45284;-87
2021/08/04 02:08:39;;;;;;;;;5.50;5.00;;;;;14.91;67.61;100133.16;4978559;28;45136;-86
2021/08/04 02:11:30;;;;;;;;;6.00;6.00;;;;;14.96;67.62;100149.69;4978586;28;45268;-86
2021/08/04 02:14:18;;;;;;;;;7.75;5.75;;;;;14.90;67.47;100150.19;4978401;28;47202;-87
2021/08/04 02:17:05;;;;;;;;;6.75;6.00;;;;;14.86;67.99;100143.38;4978319;28;46063;-86
2021/08/04 02:19:43;;;;;;;;;7.00;6.00;;;;;14.79;67.87;100143.88;4978390;28;45196;-86
2021/08/04 02:22:26;;;;;;;;;5.50;5.50;;;;;14.67;68.18;100126.97;4978508;28;45244;-87
2021/08/04 02:25:03;;;;;;;;;7.50;6.50;;;;;14.65;67.80;100122.69;4996079;28;46609;-86
2021/08/04 02:27:29;;;;;;;;;6.75;6.00;;;;;14.64;68.14;100121.84;4995802;28;45529;-85
2021/08/04 02:29:57;;;;;;;;;5.50;5.50;;;;;14.68;68.61;100135.84;4996022;28;45702;-86
2021/08/04 02:32:24;;;;;;;;;6.25;6.25;;;;;14.67;67.84;100129.63;4978381;28;45347;-87
2021/08/04 02:34:49;;;;;;;;;9.00;7.00;;;;;14.55;68.45;100119.91;4994816;28;48004;-86
2021/08/04 02:37:15;;;;;;;;;8.00;8.00;;;;;14.29;68.29;100082.69;4977939;28;45139;-86
2021/08/04 02:39:40;;;;;;;;;6.00;4.75;;;;;14.48;68.37;100119.50;4981044;28;45239;-86
2021/08/04 02:42:06;;;;;;;;;7.75;6.50;;;;;14.42;68.52;100111.13;4981518;28;45166;-86
2021/08/04 02:44:31;;;;;;;;;5.75;5.75;;;;;14.46;68.61;100121.44;4981314;28;48399;-88
2021/08/04 02:46:57;;;;;;;;;7.25;7.25;;;;;14.37;68.73;100124.00;4981243;28;45739;-86
2021/08/04 02:49:23;;;;;;;;;6.00;6.00;;;;;14.24;68.69;100098.22;4981563;28;45142;-87
2021/08/04 02:51:48;;;;;;;;;10.00;7.25;;;;;14.33;68.60;100121.56;4981583;28;45332;-86
2021/08/04 02:54:18;;;;;;;;;8.00;7.00;;;;;14.30;68.95;100115.59;4981298;28;48177;-86
2021/08/04 02:56:44;;;;;;;;;7.75;5.25;;;;;14.31;68.46;100120.84;4981094;28;46014;-86
2021/08/04 02:59:09;;;;;;;;;8.00;7.00;;;;;14.31;68.47;100120.00;4999113;28;45157;-89
2021/08/04 03:01:35;;;;;;;;;7.75;6.00;;;;;14.28;68.75;100120.22;4997675;28;45321;-87
2021/08/04 03:04:00;;;;;;;;;7.50;6.25;;;;;14.14;68.54;100097.25;4999067;28;45250;-87
2021/08/04 03:06:26;;;;;;;;;7.75;6.00;;;;;13.94;68.82;100072.91;4997342;28;45160;-87
2021/08/04 03:08:51;;;;;;;;;6.75;5.75;;;;;14.14;68.73;100107.94;4981060;28;45137;-86
2021/08/04 03:11:16;;;;;;;;;5.50;5.50;;;;;14.25;68.68;100117.78;4981242;28;45179;-86
2021/08/04 03:13:42;;;;;;;;;7.75;5.50;;;;;13.99;68.65;100080.56;4981050;28;47465;-86
2021/08/04 03:16:07;;;;;;;;;6.00;6.00;;;;;14.07;68.58;100096.00;4998570;28;45060;-88
2021/08/04 03:18:32;;;;;;;;;6.75;6.75;;;;;14.19;68.37;100121.78;4981063;28;45304;-87
2021/08/04 03:20:58;;;;;;;;;9.25;6.50;;;;;14.06;68.68;100089.78;4997258;28;45357;-86
2021/08/04 03:23:23;;;;;;;;;8.00;6.75;;;;;14.07;68.91;100096.84;4980915;28;47438;-88
2021/08/04 03:25:49;;;;;;;;;6.00;6.00;;;;;14.11;69.03;100111.69;4998513;28;45112;-87
2021/08/04 03:28:15;;;;;;;;;7.00;6.25;;;;;14.15;68.78;100109.63;4998736;28;45170;-85
2021/08/04 03:30:40;;;;;;;;;8.00;5.50;;;;;13.99;69.32;100083.22;4998456;28;45250;-87
2021/08/04 03:33:06;;;;;;;;;6.75;6.25;;;;;14.02;68.82;100087.50;4998230;28;46572;-86
2021/08/04 03:35:31;;;;;;;;;6.75;6.75;;;;;14.12;68.71;100101.84;4998424;28;45261;-88
2021/08/04 03:37:57;;;;;;;;;5.00;5.00;;;;;14.02;68.87;100088.31;4998472;28;45160;-85
2021/08/04 03:40:22;;;;;;;;;4.25;4.25;;;;;14.05;69.20;100103.28;4980792;28;45164;-87
2021/08/04 03:42:47;;;;;;;;;5.00;4.00;;;;;13.82;68.91;100071.16;4980383;28;46794;-87
2021/08/04 03:45:13;;;;;;;;;6.00;6.00;;;;;13.90;69.08;100081.28;4998316;28;45192;-86
2021/08/04 03:47:38;;;;;;;;;8.00;6.00;;;;;13.99;69.19;100104.59;4998341;28;45271;-87
2021/08/04 03:50:04;;;;;;;;;5.00;5.00;;;;;13.94;69.23;100104.13;4980003;28;45288;-87
2021/08/04 03:52:30;;;;;;;;;5.50;4.00;;;;;13.83;69.03;100091.56;4980470;28;47851;-86
2021/08/04 03:54:55;;;;;;;;;5.00;5.00;;;;;13.86;69.40;100104.69;4980631;28;45235;-87
2021/08/04 03:57:20;;;;;;;;;7.00;6.00;;;;;13.80;69.15;100100.66;4980229;28;45219;-88
2021/08/04 03:59:46;;;;;;;;;6.75;6.75;;;;;13.75;69.43;100093.97;4980625;28;45238;-86
2021/08/04 04:02:11;;;;;;;;;8.00;8.00;;;;;13.87;69.46;100122.44;4980041;28;47755;-87
2021/08/04 04:04:37;;;;;;;;;7.00;6.00;;;;;13.81;69.22;100105.06;4980341;28;45891;-87
2021/08/04 04:07:02;;;;;;;;;8.25;7.00;;;;;13.68;69.45;100079.38;4996786;28;45123;-86
2021/08/04 04:09:29;;;;;;;;;8.00;6.00;;;;;13.74;69.42;100097.63;4980286;28;45194;-87
2021/08/04 04:11:55;;;;;;;;;8.00;6.25;;;;;13.71;69.64;100093.38;4979899;28;47171;-86
2021/08/04 04:14:20;;;;;;;;;5.75;5.50;;;;;13.75;69.44;100101.97;4980187;28;45320;-86
2021/08/04 04:16:45;;;;;;;;;7.50;6.00;;;;;13.76;69.45;100099.19;4997699;28;45294;-87
2021/08/04 04:19:11;;;;;;;;;5.25;4.00;;;;;13.77;69.68;100100.91;4979992;28;45162;-87
2021/08/04 04:21:36;;;;;;;;;6.25;5.75;;;;;13.84;69.46;100100.44;4997857;28;46091;-87
2021/08/04 04:24:02;;;;;;;;;6.75;5.50;;;;;13.94;69.50;100106.81;4997855;28;45267;-86
2021/08/04 04:26:27;;;;;;;;;6.25;6.25;;;;;13.87;69.67;100095.72;4979893;28;45193;-87
2021/08/04 04:28:52;;;;;;;;;8.50;7.50;;;;;13.97;69.46;100112.75;4979848;28;45423;-87
2021/08/04 04:31:18;;;;;;;;;7.00;7.00;;;;;13.95;70.13;100105.81;4997198;28;46469;-86
2021/08/04 04:33:43;;;;;;;;;6.00;6.00;;;;;13.99;69.76;100109.94;4979713;28;45232;-87
2021/08/04 04:36:08;;;;;;;;;9.00;6.00;;;;;13.90;69.79;100084.78;4979722;28;45257;-86
2021/08/04 04:38:34;;;;;;;;;6.00;5.50;;;;;13.99;69.71;100104.59;4979638;28;45231;-87
2021/08/04 04:41:00;;;;;;;;;7.25;6.75;;;;;14.04;69.86;100104.25;4979315;28;47148;-87
2021/08/04 04:43:25;;;;;;;;;7.00;7.00;;;;;13.84;69.68;100073.72;4996083;28;45186;-86
2021/08/04 04:45:50;;;;;;;;;6.25;5.50;;;;;13.80;69.93;100063.25;4997679;28;45197;-86
2021/08/04 04:48:16;;;;;;;;;7.00;5.75;;;;;13.84;69.90;100066.56;4997415;28;45380;-86
2021/08/04 04:50:42;;;;;;;;;4.50;4.50;;;;;14.06;70.10;100103.16;4979436;28;47225;-88
2021/08/04 04:53:07;;;;;;;;;7.50;6.00;;;;;14.07;69.92;100099.53;4979310;28;45123;-86
2021/08/04 04:55:33;;;;;;;;;8.50;6.50;;;;;14.11;69.81;100102.84;4997311;28;45121;-85
2021/08/04 04:57:58;;;;;;;;;6.00;4.00;;;;;14.21;69.93;100108.28;4997240;28;45338;-86
2021/08/04 05:00:23;;;;;;;;;7.75;5.00;;;;;14.10;69.98;100087.75;4978926;28;47979;-88
2021/08/04 05:02:49;;;;;;;;;6.00;5.50;;;;;14.26;69.71;100117.66;4996578;28;45110;-87
2021/08/04 05:05:15;;;;;;;;;6.75;6.00;;;;;14.16;69.74;100081.91;4979387;28;45154;-86
2021/08/04 05:07:40;;;;;;;;;5.75;5.50;;;;;14.29;69.70;100103.19;4996956;28;45288;-86
2021/08/04 05:10:06;;;;;;;;;7.50;7.00;;;;;14.32;69.58;100100.28;4996968;28;45420;-87
2021/08/04 05:12:31;;;;;;;;;6.50;5.50;;;;;14.43;69.61;100124.34;4979080;28;45455;-86
2021/08/04 05:14:57;;;;;;;;;5.50;5.00;;;;;14.49;69.49;100125.69;4979267;28;45292;-87
2021/08/04 05:17:22;;;;;;;;;5.75;5.25;;;;;14.45;69.23;100114.41;4979133;28;45217;-86
2021/08/04 05:19:48;;;;;;;;;5.00;4.75;;;;;14.54;69.77;100112.00;4978884;28;46897;-86
2021/08/04 05:22:13;;;;;;;;;6.00;6.00;;;;;14.67;69.48;100124.28;4995273;28;45248;-86
2021/08/04 05:24:38;;;;;;;;;9.25;7.00;;;;;14.67;69.47;100116.25;4997132;28;45241;-87
2021/08/04 05:27:04;;;;;;;;;5.25;5.00;;;;;14.69;69.26;100105.44;4995574;28;45169;-86
2021/08/04 05:29:29;;;;;;;;;7.00;6.00;;;;;14.69;69.55;100094.72;4996709;28;45511;-88
2021/08/04 05:31:56;;;;;;;;;6.00;5.50;;;;;14.93;69.02;100116.00;4978726;28;45165;-86
2021/08/04 05:34:21;;;;;;;;;8.75;8.75;;;;;14.83;68.52;100086.44;4997238;28;45118;-86
2021/08/04 05:36:46;;;;;;;;;7.00;4.75;;;;;14.93;68.64;100091.91;4978934;28;45118;-86
2021/08/04 05:39:12;;;;;;;;;6.25;5.75;;;;;15.18;68.58;100124.72;4996519;28;45318;-86
2021/08/04 05:41:39;;;;;;;;;7.00;7.00;;;;;15.26;69.06;100127.59;4996489;28;45138;-87
2021/08/04 05:44:04;;;;;;;;;6.25;5.00;;;;;15.09;69.04;100093.34;4978854;28;45367;-86
2021/08/04 05:46:30;;;;;;;;;4.75;4.75;;;;;15.43;69.23;100136.94;4996896;28;45220;-87
2021/08/04 05:48:55;;;;;;;;;4.75;4.50;;;;;15.26;69.22;100092.78;4996323;28;46385;-87
2021/08/04 05:51:20;;;;;;;;;5.25;5.25;;;;;15.49;68.66;100120.38;4978739;28;45183;-85
2021/08/04 05:53:46;;;;;;;;;8.00;6.00;;;;;15.55;68.35;100127.06;4996663;28;45225;-86
2021/08/04 05:56:11;;;;;;;;;6.50;6.25;;;;;15.57;68.30;100118.88;4996491;28;45243;-86
2021/08/04 05:58:36;;;;;;;;;8.00;7.25;;;;;15.65;67.78;100127.97;4996439;28;45353;-87
2021/08/04 06:01:02;;;;;;;;;5.00;4.00;;;;;15.66;67.54;100123.47;4996284;28;45354;-86
2021/08/04 06:03:27;;;;;;;;;8.00;8.00;;;;;15.67;67.10;100117.13;4978686;28;45122;-86
2021/08/04 06:05:53;;;;;;;;;9.25;7.25;;;;;15.77;67.15;100125.25;4978665;28;45352;-87
2021/08/04 06:08:18;;;;;;;;;9.25;8.25;;;;;15.90;66.53;100138.50;4996176;28;45330;-87
2021/08/04 06:10:43;;;;;;;;;9.25;8.50;;;;;15.74;66.76;100101.41;4978249;28;45964;-86
2021/08/04 06:13:09;;;;;;;;;8.50;8.25;;;;;15.91;66.73;100126.81;4998380;28;45340;-86
2021/08/04 06:15:34;;;;;;;;;10.25;8.75;;;;;16.07;66.96;100129.03;4981897;28;45367;-86
2021/08/04 06:17:59;;;;;;;;;6.50;6.00;;;;;16.02;67.11;100116.03;4999366;28;45480;-86
2021/08/04 06:20:25;;;;;;;;;6.00;5.00;;;;;15.94;66.92;100089.84;4981930;28;45153;-86
2021/08/04 06:22:50;;;;;;;;;11.00;8.50;;;;;16.02;67.02;100081.16;4999758;28;45074;-86
2021/08/04 06:25:16;;;;;;;;;6.25;6.25;;;;;16.30;66.44;100111.78;4999936;28;45181;-88
2021/08/04 06:27:41;;;;;;;;;6.75;5.25;;;;;16.52;66.34;100120.69;4999448;28;45267;-88
2021/08/04 06:30:07;;;;;;;;;9.75;6.00;;;;;16.62;66.31;100126.09;4999166;28;45175;-87
2021/08/04 06:32:32;;;;;;;;;6.75;6.75;;;;;16.54;65.90;100079.28;4997896;28;45221;-86
2021/08/04 06:34:58;;;;;;;;;7.00;7.00;;;;;16.79;65.71;100105.78;4981691;28;45189;-86
2021/08/04 06:37:23;;;;;;;;;7.50;6.50;;;;;17.00;65.19;100114.69;4981255;28;47745;-87
2021/08/04 06:39:49;;;;;;;;;7.00;7.00;;;;;17.19;64.95;100127.28;4981457;28;45457;-87
2021/08/04 06:42:14;;;;;;;;;8.25;6.75;;;;;17.31;64.64;100130.69;4981694;28;45217;-86
2021/08/04 06:44:40;;;;;;;;;7.25;5.25;;;;;17.35;64.25;100107.94;4981612;28;45233;-88
2021/08/04 06:47:06;;;;;;;;;6.75;6.75;;;;;17.46;64.18;100130.28;4981257;28;48148;-86
2021/08/04 06:49:32;;;;;;;;;7.00;7.00;;;;;17.51;64.23;100123.50;4981287;28;46057;-87
2021/08/04 06:51:57;;;;;;;;;5.75;5.75;;;;;17.67;63.96;100119.41;4981349;28;45246;-86
2021/08/04 06:54:24;;;;;;;;;9.25;6.50;;;;;17.82;63.27;100130.59;4981454;28;45178;-86
2021/08/04 06:56:49;;;;;;;;;9.00;7.00;;;;;17.80;62.71;100090.41;4981001;28;47350;-86
2021/08/04 06:59:16;;;;;;;;;9.00;8.25;;;;;18.11;61.75;100120.69;4998934;28;45289;-86
2021/08/04 07:01:41;;;;;;;;;5.75;5.75;;;;;18.25;61.90;100134.69;4981396;28;45129;-86
2021/08/04 07:04:06;;;;;;;;;7.25;5.00;;;;;18.24;61.46;100124.91;4981497;28;45174;-88
2021/08/04 07:06:32;;;;;;;;;6.75;6.50;;;;;18.24;61.06;100127.59;4998703;28;46375;-86
2021/08/04 07:08:57;;;;;;;;;7.00;7.00;;;;;18.24;61.07;100133.84;4998931;28;45085;-87
2021/08/04 07:11:22;;;;;;;;;5.00;5.00;;;;;18.11;61.02;100115.31;4981028;28;45276;-86
2021/08/04 07:13:49;;;;;;;;;6.25;6.25;;;;;18.27;61.17;100138.06;4998972;28;45233;-87
2021/08/04 07:16:17;;;;;;;;;6.75;5.75;;;;;18.35;61.06;100146.25;4980733;28;47140;-86
2021/08/04 07:18:43;;;;;;;;;10.00;8.50;;;;;18.32;60.65;100116.97;4980916;28;45213;-87
2021/08/04 07:21:08;;;;;;;;;7.00;5.75;;;;;18.51;60.19;100140.25;4980981;28;45320;-87
2021/08/04 07:23:33;;;;;;;;;8.50;7.50;;;;;18.55;60.17;100130.91;4980477;28;45232;-87
2021/08/04 07:25:59;;;;;;;;;9.25;6.00;;;;;18.75;60.31;100139.75;4980463;28;46359;-87
2021/08/04 07:28:24;;;;;;;;;8.50;8.00;;;;;18.77;59.73;100129.69;4980744;28;45951;-86
2021/08/04 07:30:50;;;;;;;;;7.00;7.00;;;;;18.83;59.47;100122.03;4980522;28;45613;-87
2021/08/04 07:33:15;;;;;;;;;7.00;6.00;;;;;19.02;59.53;100139.97;4980691;28;45190;-87
2021/08/04 07:35:40;;;;;;;;;6.50;5.50;;;;;19.04;58.56;100144.22;4980449;28;47031;-86
2021/08/04 07:38:06;;;;;;;;;8.75;8.00;;;;;19.02;58.29;100127.31;4997185;28;45787;-87
2021/08/04 07:40:31;;;;;;;;;5.75;5.75;;;;;19.11;58.11;100139.03;4980590;28;45167;-86
2021/08/04 07:42:56;;;;;;;;;7.00;6.00;;;;;19.10;57.79;100131.97;4998555;28;45326;-88
2021/08/04 07:45:22;;;;;;;;;5.00;5.00;;;;;19.12;57.27;100129.97;4996961;28;47232;-86
2021/08/04 07:47:47;;;;;;;;;7.50;6.75;;;;;19.13;57.57;100135.22;4998161;28;45153;-87
2021/08/04 07:50:13;;;;;;;;;6.00;6.00;;;;;19.21;57.68;100145.25;4998414;28;45224;-87
2021/08/04 07:52:39;;;;;;;;;6.00;5.50;;;;;19.17;57.60;100140.28;4980490;28;45281;-86
2021/08/04 07:55:06;;;;;;;;;6.25;6.00;;;;;19.17;57.02;100133.06;4980340;28;47200;-87
2021/08/04 07:57:32;;;;;;;;;7.00;6.00;;;;;19.26;57.19;100140.25;4980235;28;45518;-88
2021/08/04 07:59:57;;;;;;;;;7.00;6.50;;;;;19.48;57.44;100151.59;4980319;28;45143;-88
2021/08/04 08:02:23;;;;;;;;;11.75;10.75;;;;;19.65;57.16;100139.13;4980341;28;45409;-88
2021/08/04 08:04:48;;;;;;;;;6.75;6.75;;;;;19.82;56.13;100122.13;4998121;28;45278;-86
2021/08/04 08:07:13;;;;;;;;;6.00;6.00;;;;;20.32;55.92;100147.63;4979906;28;45747;-86
2021/08/04 08:09:39;;;;;;;;;5.25;5.25;;;;;20.63;54.49;100124.69;4998195;28;45172;-87
2021/08/04 08:12:05;;;;;;;;;6.00;6.00;;;;;21.02;54.17;100132.31;4998113;28;45248;-86
2021/08/04 08:14:31;;;;;;;;;5.75;5.75;;;;;21.17;53.73;100103.63;4980534;28;47040;-87
2021/08/04 08:16:57;;;;;;;;;7.50;6.25;;;;;21.58;53.61;100119.16;4980229;28;45583;-87
2021/08/04 08:19:23;;;;;;;;;7.50;5.00;;;;;22.05;53.12;100137.41;4998140;28;45457;-87
2021/08/04 08:21:48;;;;;;;;;8.25;8.25;;;;;22.40;51.99;100140.81;4998070;28;45637;-88
2021/08/04 08:24:14;;;;;;;;;6.75;6.50;;;;;22.60;51.31;100110.59;4979790;28;47905;-87
2021/08/04 08:26:40;;;;;;;;;5.00;5.00;;;;;23.04;50.80;100139.91;4979789;28;45738;-88
2021/08/04 08:29:06;;;;;;;;;7.75;6.00;;;;;23.16;48.09;100124.13;4996380;28;45290;-87
2021/08/04 08:31:34;;;;;;;;;7.25;7.25;;;;;23.26;49.13;100141.03;4979692;28;45543;-86
2021/08/04 08:34:00;;;;;;;;;4.50;4.00;;;;;23.33;49.28;100132.16;4997530;28;46416;-86
2021/08/04 08:36:27;;;;;;;;;6.25;5.50;;;;;23.29;47.81;100131.69;4994659;28;45173;-89
2021/08/04 08:38:52;;;;;;;;;6.75;4.75;;;;;23.09;48.38;100134.81;4979922;28;45296;-87
2021/08/04 08:41:17;;;;;;;;;5.75;5.75;;;;;22.83;48.38;100126.09;4979670;28;45096;-87
2021/08/04 08:43:43;;;;;;;;;7.00;5.25;;;;;22.74;48.59;100115.28;4979643;28;47387;-86
2021/08/04 08:46:09;;;;;;;;;6.00;4.75;;;;;23.01;48.66;100121.28;4995790;28;45800;-87
2021/08/04 08:48:34;;;;;;;;;9.50;5.50;;;;;23.31;48.23;100123.38;4997726;28;45154;-87
2021/08/04 08:51:00;;;;;;;;;5.00;4.00;;;;;23.56;48.15;100099.66;4997512;28;45213;-87
2021/08/04 08:53:25;;;;;;;;;6.50;6.50;;;;;24.07;47.19;100110.78;4979354;28;48098;-87
2021/08/04 08:55:51;;;;;;;;;6.25;5.75;;;;;24.42;46.25;100140.97;4979133;28;45520;-87
2021/08/04 08:58:16;;;;;;;;;8.00;5.00;;;;;24.30;46.18;100110.72;4979498;28;45246;-87
2021/08/04 09:00:42;;;;;;;;;10.25;5.25;;;;;24.52;46.30;100138.00;4997251;28;45213;-87
2021/08/04 09:03:07;;;;;;;;;7.00;6.00;;;;;24.33;45.58;100125.81;4996849;28;46223;-87
2021/08/04 09:05:51;;;;;;;;;6.00;6.00;;;;;24.20;45.39;100134.59;4979396;28;45395;-87
2021/08/04 09:08:22;;;;;;;;;5.75;5.00;;;;;23.98;46.00;100130.03;4979609;28;45226;-87
2021/08/04 09:10:47;;;;;;;;;7.50;5.50;;;;;23.56;45.87;100114.03;4979332;28;45339;-87
2021/08/04 09:13:13;;;;;;;;;11.25;5.25;;;;;23.37;46.92;100131.66;4979361;28;48271;-87
2021/08/04 09:15:41;;;;;;;;;6.75;6.75;;;;;23.07;46.02;100131.44;4996956;28;45295;-87
2021/08/04 09:18:15;;;;;;;;;7.00;6.75;;;;;22.79;47.15;100130.19;4996887;28;45404;-87
2021/08/04 09:20:46;;;;;;;;;4.75;4.00;;;;;22.61;47.86;100133.97;4997317;28;45355;-87
2021/08/04 09:23:16;;;;;;;;;5.00;5.00;;;;;22.36;47.99;100123.19;4978895;28;47135;-87
2021/08/04 09:26:10;;;;;;;;;7.25;4.50;;;;;22.26;48.98;100129.78;4996839;28;45472;-87
2021/08/04 09:29:04;;;;;;;;;5.25;5.25;;;;;22.15;52.02;100134.53;4979548;28;45311;-87
2021/08/04 09:31:48;;;;;;;;;6.00;6.00;;;;;22.03;53.90;100122.34;4996644;28;45301;-86
2021/08/04 09:34:46;;;;;;;;;6.00;6.00;;;;;21.87;53.63;100117.81;4963368;28;48112;-87
2021/08/04 09:37:17;;;;;;;;;6.75;5.50;;;;;21.50;53.06;100094.75;4997059;28;45164;-86
2021/08/04 09:39:58;;;;;;;;;6.75;6.75;;;;;21.30;54.45;100105.88;4997101;28;45125;-88
2021/08/04 09:42:41;;;;;;;;;6.50;5.25;;;;;21.11;55.34;100111.59;4979348;28;45189;-90
2021/08/04 09:45:11;;;;;;;;;7.50;7.50;;;;;20.99;55.84;100100.22;4997141;28;45408;-87
2021/08/04 09:47:36;;;;;;;;;6.00;6.00;;;;;20.95;54.83;100102.41;4996481;28;45205;-86
2021/08/04 09:50:07;;;;;;;;;6.00;6.00;;;;;21.03;55.98;100115.09;4997395;28;45232;-88
2021/08/04 09:52:35;;;;;;;;;15.00;9.75;;;;;21.10;56.61;100116.13;4994956;28;45291;-87
2021/08/04 09:55:16;;;;;;;;;11.00;7.50;;;;;21.18;55.63;100105.34;4979343;28;47210;-87
2021/08/04 09:58:05;;;;;;;;;6.25;6.25;;;;;21.24;54.97;100100.28;4996645;28;45542;-88
2021/08/04 10:01:14;;;;;;;;;7.50;7.50;;;;;21.36;54.77;100107.06;4996977;28;45216;-86
2021/08/04 10:04:02;;;;;;;;;6.00;6.00;;;;;21.46;54.03;100102.38;4962908;28;45121;-87
2021/08/04 10:06:34;;;;;;;;;5.25;5.25;;;;;21.54;54.31;100107.78;4979011;28;45174;-87
2021/08/04 10:09:04;;;;;;;;;8.00;5.25;;;;;21.61;54.07;100102.56;4995983;28;45078;-88
2021/08/04 10:11:50;;;;;;;;;8.00;6.00;;;;;21.69;54.38;100101.72;4979080;28;45166;-86
2021/08/04 10:14:19;;;;;;;;;6.25;6.25;;;;;21.77;54.74;100093.59;4979236;28;45424;-88
2021/08/04 10:17:17;;;;;;;;;6.00;6.00;;;;;21.89;55.02;100094.97;4996581;28;45386;-86
2021/08/04 10:20:25;;;;;;;;;7.00;7.00;;;;;22.20;54.10;100093.41;4996896;28;45209;-87
2021/08/04 10:23:16;;;;;;;;;6.00;5.00;;;;;22.47;52.30;100078.63;4996403;28;45083;-86
2021/08/04 10:25:57;;;;;;;;;8.75;6.00;;;;;22.68;51.83;100094.31;4995796;28;45130;-88
2021/08/04 10:28:45;;;;;;;;;6.50;6.50;;;;;22.79;53.07;100098.53;4978856;28;47359;-88
2021/08/04 10:31:14;;;;;;;;;7.00;5.75;;;;;22.90;52.43;100102.69;4995734;28;45656;-86
2021/08/04 10:33:40;;;;;;;;;8.00;6.00;;;;;22.98;53.58;100096.41;4978519;28;45258;-85
2021/08/04 10:36:11;;;;;;;;;8.25;6.00;;;;;22.99;52.79;100096.22;4978514;28;45059;-86
2021/08/04 10:39:08;;;;;;;;;7.00;7.00;;;;;23.02;52.13;100095.03;4996129;28;46312;-87
2021/08/04 10:42:24;;;;;;;;;8.00;6.50;;;;;23.01;52.07;100099.59;4897232;29;45219;-87
2021/08/04 10:44:55;;;;;;;;;6.00;4.00;;;;;22.86;52.07;100066.97;4897535;29;45223;-87
2021/08/04 10:47:36;;;;;;;;;6.00;5.25;;;;;23.06;52.32;100096.38;4897506;29;45244;-88
2021/08/04 10:50:36;;;;;;;;;7.50;6.00;;;;;23.00;51.14;100097.91;4897372;29;46630;-87
2021/08/04 10:53:03;;;;;;;;;6.00;6.00;;;;;22.91;51.62;100093.53;4881682;29;45217;-87
2021/08/04 10:55:50;;;;;;;;;6.00;6.00;;;;;22.84;51.36;100097.97;4897077;29;45287;-87
2021/08/04 10:58:16;;;;;;;;;7.00;5.00;;;;;22.73;52.08;100099.19;4897360;29;45226;-87
2021/08/04 11:00:42;;;;;;;;;6.00;6.00;;;;;22.65;51.76;100089.25;4899594;29;48256;-87
2021/08/04 11:03:42;;;;;;;;;5.25;5.25;;;;;22.66;52.12;100101.78;4900159;29;45227;-86
2021/08/04 11:06:13;;;;;;;;;4.50;4.50;;;;;22.61;52.57;100101.47;4900537;29;45226;-87
2021/08/04 11:08:40;;;;;;;;;6.75;6.50;;;;;22.50;52.34;100085.56;4868884;29;45453;-87
2021/08/04 11:11:06;;;;;;;;;8.00;6.00;;;;;22.56;53.10;100102.00;4899778;29;47478;-87
2021/08/04 11:13:53;;;;;;;;;6.75;5.50;;;;;22.53;53.49;100104.19;4900094;29;45200;-87
2021/08/04 11:16:33;;;;;;;;;6.00;6.00;;;;;22.33;53.69;100084.78;4899843;29;45176;-87
2021/08/04 11:19:10;;;;;;;;;6.00;6.00;;;;;22.26;53.00;100098.16;4976184;28;45104;-87
2021/08/04 11:21:37;;;;;;;;;7.25;7.25;;;;;22.14;53.78;100097.63;4998733;28;45505;-85
2021/08/04 11:24:06;;;;;;;;;9.25;8.25;;;;;21.95;54.51;100077.19;4981023;28;45639;-88
2021/08/04 11:26:38;;;;;;;;;6.00;6.00;;;;;21.95;54.32;100101.56;4981285;28;45258;-86
2021/08/04 11:29:36;;;;;;;;;9.25;9.00;;;;;21.83;54.93;100102.91;4965280;28;45384;-86
2021/08/04 11:32:31;;;;;;;;;10.25;10.00;;;;;21.61;56.57;100094.47;4998531;28;46585;-88